createdAt,value
2019-04-22T00:02:20.536Z,97607.33
2019-04-22T00:05:01.075Z,97598.81
2019-04-22T00:07:42.019Z,97598.70
2019-04-22T00:10:24.248Z,97602.98
2019-04-22T00:12:48.611Z,97594.08
2019-04-22T00:15:10.068Z,97587.13
2019-04-22T00:17:55.089Z,97591.78
2019-04-22T00:20:14.469Z,97586.23
2019-04-22T00:22:50.554Z,97588.34
2019-04-22T00:25:29.849Z,97592.13
2019-04-22T00:27:57.004Z,97584.83
2019-04-22T00:30:22.465Z,97585.73
2019-04-22T00:32:58.953Z,97593.85
2019-04-22T00:35:23.694Z,97588.94
2019-04-22T00:38:08.445Z,97583.96
2019-04-22T00:42:58.338Z,97581.95
2019-04-22T00:45:34.389Z,97579.85
2019-04-22T00:48:09.284Z,97575.35
2019-04-22T00:50:58.330Z,97576.13
2019-04-22T00:53:14.648Z,97578.03
2019-04-22T00:55:37.880Z,97577.06
2019-04-22T00:58:08.022Z,97574.61
2019-04-22T01:00:44.407Z,97578.66
2019-04-22T01:03:19.982Z,97571.00
2019-04-22T01:05:40.798Z,97577.11
2019-04-22T01:08:14.872Z,97579.47
2019-04-22T01:10:49.839Z,97583.16
2019-04-22T01:13:16.330Z,97582.02
2019-04-22T01:16:05.147Z,97580.95
2019-04-22T01:18:13.243Z,97580.23
2019-04-22T01:23:19.499Z,97580.48
2019-04-22T01:25:46.326Z,97584.67
2019-04-22T01:28:10.952Z,97580.79
2019-04-22T01:30:34.991Z,97581.02
2019-04-22T01:33:05.709Z,97584.66
2019-04-22T01:35:38.614Z,97593.33
2019-04-22T01:38:13.621Z,97586.55
2019-04-22T01:43:24.609Z,97591.23
2019-04-22T01:45:54.702Z,97592.53
2019-04-22T01:48:26.393Z,97588.42
2019-04-22T01:50:54.717Z,97597.20
2019-04-22T01:53:36.575Z,97595.99
2019-04-22T01:56:08.807Z,97589.52
2019-04-22T01:58:30.933Z,97604.40
2019-04-22T02:01:09.738Z,97597.98
2019-04-22T02:03:40.048Z,97600.47
2019-04-22T02:06:07.555Z,97599.45
2019-04-22T02:08:46.633Z,97592.47
2019-04-22T02:11:07.676Z,97595.05
2019-04-22T02:13:48.016Z,97596.88
2019-04-22T02:16:14.525Z,97598.38
2019-04-22T02:18:50.716Z,97599.27
2019-04-22T02:21:08.408Z,97594.22
2019-04-22T02:23:51.298Z,97593.72
2019-04-22T02:26:19.426Z,97597.30
2019-04-22T02:28:53.713Z,97596.75
2019-04-22T02:36:23.013Z,97598.17
2019-04-22T02:39:00.062Z,97598.61
2019-04-22T02:43:59.522Z,97600.63
2019-04-22T02:51:22.130Z,97609.97
2019-04-22T02:59:08.634Z,97609.43
2019-04-22T03:01:33.148Z,97609.47
2019-04-22T03:04:11.055Z,97609.33
2019-04-22T03:09:07.548Z,97613.32
2019-04-22T03:11:45.061Z,97605.27
2019-04-22T03:16:34.989Z,97600.73
2019-04-22T03:19:09.918Z,97598.16
2019-04-22T03:21:25.025Z,97604.27
2019-04-22T03:29:14.927Z,97605.55
2019-04-22T03:42:05.562Z,97613.13
2019-04-22T03:47:12.082Z,97613.88
2019-04-22T03:49:37.234Z,97617.75
2019-04-22T04:07:20.508Z,97628.42
2019-04-22T04:12:25.850Z,97624.95
2019-04-22T04:15:17.331Z,97630.00
2019-04-22T04:23:03.870Z,97642.63
2019-04-22T04:25:42.909Z,97643.88
2019-04-22T04:28:46.418Z,97648.26
2019-04-22T04:31:00.903Z,97651.43
2019-04-22T04:33:28.910Z,97659.90
2019-04-22T04:36:02.762Z,97659.27
2019-04-22T04:38:36.629Z,97660.60
2019-04-22T04:41:06.212Z,97649.41
2019-04-22T04:43:50.215Z,97647.09
2019-04-22T04:46:13.847Z,97654.33
2019-04-22T04:57:00.792Z,97655.13
2019-04-22T05:02:10.055Z,97645.42
2019-04-22T05:05:00.272Z,97643.71
2019-04-22T05:09:37.760Z,97641.60
2019-04-22T05:12:25.511Z,97633.63
2019-04-22T05:14:44.615Z,97639.63
2019-04-22T05:17:16.018Z,97633.86
2019-04-22T05:19:56.675Z,97635.64
2019-04-22T05:22:14.918Z,97634.97
2019-04-22T05:24:34.771Z,97632.09
2019-04-22T05:27:20.452Z,97626.67
2019-04-22T05:30:00.648Z,97628.01
2019-04-22T05:32:14.403Z,97619.23
2019-04-22T05:34:52.966Z,97615.33
2019-04-22T05:37:07.365Z,97612.69
2019-04-22T05:39:37.054Z,97612.99
2019-04-22T05:44:47.727Z,97614.09
2019-04-22T05:47:17.753Z,97614.63
2019-04-22T05:49:36.968Z,97612.86
2019-04-22T05:52:09.615Z,97614.54
2019-04-22T05:54:53.213Z,97614.79
2019-04-22T05:57:18.030Z,97605.68
2019-04-22T05:59:46.041Z,97602.27
2019-04-22T06:02:25.294Z,97596.91
2019-04-22T06:04:55.772Z,97599.11
2019-04-22T06:07:17.772Z,97598.60
2019-04-22T06:09:54.985Z,97596.67
2019-04-22T06:12:19.116Z,97589.96
2019-04-22T06:14:54.310Z,97585.11
2019-04-22T06:17:35.439Z,97587.89
2019-04-22T06:20:00.612Z,97586.80
2019-04-22T06:22:40.044Z,97578.08
2019-04-22T06:25:00.844Z,97577.49
2019-04-22T06:29:53.719Z,97583.21
2019-04-22T06:35:11.362Z,97580.27
2019-04-22T06:37:33.659Z,97573.60
2019-04-22T06:39:59.387Z,97570.46
2019-04-22T06:42:36.645Z,97564.50
2019-04-22T06:45:07.304Z,97569.97
2019-04-22T06:50:07.605Z,97556.84
2019-04-22T06:52:41.955Z,97560.92
2019-04-22T06:55:11.725Z,97563.04
2019-04-22T06:57:39.391Z,97549.25
2019-04-22T07:00:14.320Z,97550.97
2019-04-22T07:02:56.378Z,97559.92
2019-04-22T07:05:17.355Z,97551.84
2019-04-22T07:07:46.251Z,97555.06
2019-04-22T07:10:26.848Z,97552.42
2019-04-22T07:12:49.101Z,97548.86
2019-04-22T07:15:36.995Z,97547.37
2019-04-22T07:18:01.003Z,97540.84
2019-04-22T07:20:23.707Z,97538.92
2019-04-22T07:22:59.920Z,97536.84
2019-04-22T07:25:23.570Z,97534.75
2019-04-22T07:27:53.833Z,97523.83
2019-04-22T07:35:28.520Z,97517.36
2019-04-22T07:38:00.644Z,97517.17
2019-04-22T07:40:29.057Z,97507.01
2019-04-22T07:42:59.169Z,97505.25
2019-04-22T07:45:29.595Z,97504.28
2019-04-22T07:48:02.709Z,97497.09
2019-04-22T07:50:43.005Z,97496.77
2019-04-22T07:53:02.859Z,97495.95
2019-04-22T07:55:27.359Z,97469.83
2019-04-22T07:58:02.340Z,97469.83
2019-04-22T08:00:34.339Z,97485.65
2019-04-22T08:05:52.117Z,97454.49
2019-04-22T08:08:21.574Z,97442.66
2019-04-22T08:13:21.131Z,97462.91
2019-04-22T08:15:48.591Z,97454.64
2019-04-22T08:18:17.428Z,97448.22
2019-04-22T08:20:56.767Z,97446.72
2019-04-22T08:25:55.468Z,97446.33
2019-04-22T08:28:34.455Z,97446.81
2019-04-22T08:31:05.261Z,97438.22
2019-04-22T08:33:33.425Z,97438.22
2019-04-22T08:36:18.582Z,97433.23
2019-04-22T08:38:52.845Z,97432.80
2019-04-22T08:44:05.369Z,97432.31
2019-04-22T08:53:12.490Z,97421.80
2019-04-22T08:58:20.324Z,97413.16
2019-04-22T09:00:44.633Z,97415.44
2019-04-22T09:03:15.995Z,97416.33
2019-04-22T09:06:15.275Z,97411.48
2019-04-22T09:08:19.086Z,97414.91
2019-04-22T09:10:50.368Z,97409.34
2019-04-22T09:13:31.955Z,97404.05
2019-04-22T09:15:50.954Z,97402.69
2019-04-22T09:18:42.197Z,97393.77
2019-04-22T09:21:18.716Z,97393.21
2019-04-22T09:23:57.175Z,97397.44
2019-04-22T09:26:23.986Z,97394.16
2019-04-22T09:29:01.318Z,97393.06
2019-04-22T09:31:19.292Z,97395.44
2019-04-22T09:33:53.365Z,97393.82
2019-04-22T09:36:34.216Z,97378.43
2019-04-22T09:38:52.994Z,97383.03
2019-04-22T09:41:33.339Z,97385.22
2019-04-22T09:43:56.679Z,97370.43
2019-04-22T09:46:36.153Z,97369.84
2019-04-22T09:49:06.465Z,97375.29
2019-04-22T09:51:32.558Z,97364.20
2019-04-22T09:54:12.503Z,97367.00
2019-04-22T09:56:47.597Z,97362.99
2019-04-22T09:59:07.716Z,97369.06
2019-04-22T10:02:08.131Z,97354.49
2019-04-22T10:04:06.947Z,97355.59
2019-04-22T10:11:45.388Z,97332.46
2019-04-22T10:14:14.152Z,97339.84
2019-04-22T10:16:47.902Z,97332.13
2019-04-22T10:19:18.406Z,97319.01
2019-04-22T10:21:54.841Z,97322.02
2019-04-22T10:24:21.579Z,97321.04
2019-04-22T10:26:55.291Z,97323.01
2019-04-22T10:29:24.666Z,97320.78
2019-04-22T10:32:05.621Z,97316.24
2019-04-22T10:34:14.134Z,97304.33
2019-04-22T10:36:31.161Z,97306.23
2019-04-22T10:39:04.254Z,97318.59
2019-04-22T10:41:34.604Z,97299.81
2019-04-22T10:44:08.893Z,97301.63
2019-04-22T10:46:37.957Z,97292.58
2019-04-22T10:49:08.496Z,97290.52
2019-04-22T10:51:37.289Z,97283.12
2019-04-22T10:54:07.370Z,97282.52
2019-04-22T10:56:36.989Z,97271.90
2019-04-22T10:59:06.802Z,97271.77
2019-04-22T11:01:38.462Z,97269.39
2019-04-22T11:04:09.341Z,97274.09
2019-04-22T11:06:40.934Z,97275.77
2019-04-22T11:09:10.569Z,97268.02
2019-04-22T11:11:48.776Z,97270.63
2019-04-22T11:14:10.664Z,97262.73
2019-04-22T11:16:41.582Z,97261.08
2019-04-22T11:19:11.782Z,97261.83
2019-04-22T11:21:41.313Z,97255.92
2019-04-22T11:24:12.617Z,97252.89
2019-04-22T11:26:45.169Z,97255.75
2019-04-22T11:29:17.298Z,97259.66
2019-04-22T11:31:50.511Z,97260.46
2019-04-22T11:34:19.416Z,97259.46
2019-04-22T11:36:48.241Z,97261.83
2019-04-22T11:39:21.783Z,97244.69
2019-04-22T11:41:51.924Z,97251.00
2019-04-22T11:44:30.903Z,97246.99
2019-04-22T11:47:01.536Z,97243.94
2019-04-22T11:49:32.161Z,97236.00
2019-04-22T11:52:01.119Z,97239.97
2019-04-22T11:54:42.971Z,97233.48
2019-04-22T11:57:12.896Z,97236.36
2019-04-22T11:59:47.062Z,97237.94
2019-04-22T12:02:25.390Z,97229.08
2019-04-22T12:04:56.552Z,97245.00
2019-04-22T12:07:26.691Z,97232.45
2019-04-22T12:09:55.942Z,97230.46
2019-04-22T12:12:27.720Z,97221.52
2019-04-22T12:14:56.649Z,97219.77
2019-04-22T12:17:26.407Z,97218.67
2019-04-22T12:19:55.845Z,97203.60
2019-04-22T12:22:25.126Z,97220.22
2019-04-22T12:25:01.813Z,97212.77
2019-04-22T12:27:32.675Z,97214.34
2019-04-22T12:30:02.885Z,97210.34
2019-04-22T12:32:33.556Z,97213.09
2019-04-22T12:35:02.515Z,97212.55
2019-04-22T12:37:40.514Z,97203.92
2019-04-22T12:40:02.736Z,97204.16
2019-04-22T12:42:37.558Z,97199.50
2019-04-22T12:45:09.936Z,97192.20
2019-04-22T12:47:42.053Z,97184.36
2019-04-22T12:50:26.254Z,97187.55
2019-04-22T12:53:10.413Z,97185.13
2019-04-22T12:55:34.769Z,97178.70
2019-04-22T12:58:03.447Z,97179.19
2019-04-22T13:00:32.413Z,97181.10
2019-04-22T13:03:03.034Z,97173.86
2019-04-22T13:05:33.512Z,97170.83
2019-04-22T13:08:02.206Z,97162.86
2019-04-22T13:10:41.756Z,97169.27
2019-04-22T13:13:02.775Z,97162.97
2019-04-22T13:15:32.971Z,97159.36
2019-04-22T13:18:11.840Z,97164.91
2019-04-22T13:20:38.654Z,97155.65
2019-04-22T13:23:22.697Z,97168.04
2019-04-22T13:25:52.814Z,97161.89
2019-04-22T13:28:22.911Z,97165.87
2019-04-22T13:30:52.721Z,97151.91
2019-04-22T13:33:23.174Z,97154.92
2019-04-22T13:35:55.813Z,97160.11
2019-04-22T13:38:28.980Z,97149.72
2019-04-22T13:41:07.268Z,97150.45
2019-04-22T13:43:34.335Z,97151.50
2019-04-22T13:46:06.050Z,97147.44
2019-04-22T13:48:58.976Z,97142.38
2019-04-22T13:51:36.409Z,97139.52
2019-04-22T13:54:37.117Z,97143.45
2019-04-22T13:56:25.311Z,97140.20
2019-04-22T13:58:53.081Z,97152.04
2019-04-22T14:01:14.595Z,97151.91
2019-04-22T14:03:54.537Z,97144.80
2019-04-22T14:06:24.822Z,97151.77
2019-04-22T14:08:59.052Z,97154.69
2019-04-22T14:11:36.718Z,97145.95
2019-04-22T14:13:58.753Z,97154.14
2019-04-22T14:16:28.982Z,97151.66
2019-04-22T14:18:58.236Z,97158.52
2019-04-22T14:21:34.663Z,97166.47
2019-04-22T14:24:13.787Z,97161.89
2019-04-22T14:26:54.916Z,97160.55
2019-04-22T14:29:13.625Z,97158.18
2019-04-22T14:32:04.318Z,97163.86
2019-04-22T14:34:20.941Z,97155.63
2019-04-22T14:36:51.178Z,97155.39
2019-04-22T14:39:23.938Z,97155.88
2019-04-22T14:42:14.056Z,97145.86
2019-04-22T14:47:19.619Z,97144.69
2019-04-22T14:49:47.419Z,97143.59
2019-04-22T14:52:21.539Z,97144.44
2019-04-22T14:54:41.342Z,97136.95
2019-04-22T14:57:01.357Z,97146.84
2019-04-22T14:59:30.959Z,97138.78
2019-04-22T15:02:01.431Z,97147.34
2019-04-22T15:04:31.050Z,97156.32
2019-04-22T15:07:01.123Z,97147.10
2019-04-22T15:09:30.195Z,97145.08
2019-04-22T15:12:11.050Z,97133.90
2019-04-22T15:14:33.238Z,97136.16
2019-04-22T15:17:11.001Z,97134.52
2019-04-22T15:19:45.529Z,97132.08
2019-04-22T15:22:18.779Z,97134.95
2019-04-22T15:24:47.780Z,97138.19
2019-04-22T15:27:22.465Z,97133.92
2019-04-22T15:29:54.613Z,97131.18
2019-04-22T15:32:23.502Z,97145.72
2019-04-22T15:34:53.397Z,97135.72
2019-04-22T15:37:24.263Z,97141.81
2019-04-22T15:39:56.314Z,97136.61
2019-04-22T15:42:28.776Z,97148.83
2019-04-22T15:44:53.969Z,97152.69
2019-04-22T15:47:22.945Z,97146.30
2019-04-22T15:49:52.179Z,97145.05
2019-04-22T15:52:31.949Z,97148.25
2019-04-22T15:54:56.653Z,97142.70
2019-04-22T15:57:26.656Z,97142.73
2019-04-22T16:00:10.559Z,97139.17
2019-04-22T16:02:27.696Z,97139.60
2019-04-22T16:04:56.914Z,97139.27
2019-04-22T16:07:27.404Z,97137.10
2019-04-22T16:09:57.531Z,97145.25
2019-04-22T16:12:34.520Z,97135.42
2019-04-22T16:14:59.281Z,97137.50
2019-04-22T16:17:30.700Z,97137.95
2019-04-22T16:19:59.485Z,97136.20
2019-04-22T16:22:32.865Z,97137.20
2019-04-22T16:25:13.317Z,97143.06
2019-04-22T16:27:42.775Z,97143.61
2019-04-22T16:30:13.123Z,97151.36
2019-04-22T16:32:43.485Z,97147.16
2019-04-22T16:35:18.681Z,97139.23
2019-04-22T16:37:48.569Z,97143.75
2019-04-22T16:40:18.711Z,97132.59
2019-04-22T16:42:58.175Z,97147.59
2019-04-22T16:45:19.897Z,97138.94
2019-04-22T16:47:49.456Z,97144.70
2019-04-22T16:50:18.707Z,97140.70
2019-04-22T16:52:48.193Z,97146.06
2019-04-22T16:55:17.269Z,97153.06
2019-04-22T16:57:46.168Z,97148.58
2019-04-22T17:00:16.683Z,97145.98
2019-04-22T17:03:00.643Z,97145.89
2019-04-22T17:05:37.731Z,97148.88
2019-04-22T17:08:08.193Z,97147.45
2019-04-22T17:10:37.861Z,97146.62
2019-04-22T17:13:13.053Z,97146.62
2019-04-22T17:15:37.629Z,97137.16
2019-04-22T17:18:07.438Z,97156.53
2019-04-22T17:20:36.232Z,97156.45
2019-04-22T17:23:05.458Z,97171.86
2019-04-22T17:25:34.479Z,97171.86
2019-04-22T17:28:03.685Z,97169.97
2019-04-22T17:30:33.172Z,97161.61
2019-04-22T17:33:03.199Z,97168.30
2019-04-22T17:35:34.035Z,97166.88
2019-04-22T17:38:14.916Z,97169.09
2019-04-22T17:40:51.211Z,97171.98
2019-04-22T17:43:42.099Z,97165.13
2019-04-22T17:46:12.308Z,97164.94
2019-04-22T17:49:00.846Z,97171.35
2019-04-22T17:51:31.441Z,97163.37
2019-04-22T17:53:57.991Z,97168.16
2019-04-22T17:56:27.636Z,97171.84
2019-04-22T17:58:57.087Z,97174.40
2019-04-22T18:01:29.513Z,97167.42
2019-04-22T18:03:49.734Z,97166.67
2019-04-22T18:06:44.181Z,97184.66
2019-04-22T18:09:05.334Z,97186.77
2019-04-22T18:12:01.112Z,97188.36
2019-04-22T18:14:29.875Z,97190.80
2019-04-22T18:16:44.483Z,97190.88
2019-04-22T18:19:10.116Z,97202.60
2019-04-22T18:21:36.180Z,97200.20
2019-04-22T18:24:06.807Z,97213.91
2019-04-22T18:26:49.494Z,97221.05
2019-04-22T18:29:16.188Z,97225.64
2019-04-22T18:31:40.892Z,97221.13
2019-04-22T18:34:15.604Z,97238.42
2019-04-22T18:36:45.690Z,97248.86
2019-04-22T18:39:33.439Z,97257.13
2019-04-22T18:41:51.999Z,97263.48
2019-04-22T18:44:55.539Z,97269.78
2019-04-22T18:47:20.333Z,97281.75
2019-04-22T18:49:49.364Z,97296.52
2019-04-22T18:52:38.652Z,97299.19
2019-04-22T18:55:07.223Z,97305.95
2019-04-22T18:57:52.125Z,97315.73
2019-04-22T19:00:17.911Z,97332.87
2019-04-22T19:02:58.489Z,97336.56
2019-04-22T19:05:34.735Z,97349.78
2019-04-22T19:08:20.367Z,97349.96
2019-04-22T19:10:57.609Z,97350.80
2019-04-22T19:13:45.193Z,97358.24
2019-04-22T19:15:54.364Z,97362.39
2019-04-22T19:18:29.849Z,97371.45
2019-04-22T19:20:59.183Z,97373.40
2019-04-22T19:23:29.051Z,97376.55
2019-04-22T19:25:52.566Z,97388.52
2019-04-22T19:28:42.274Z,97389.27
2019-04-22T19:31:02.648Z,97395.90
2019-04-22T19:33:28.825Z,97402.16
2019-04-22T19:35:59.925Z,97392.52
2019-04-22T19:38:20.635Z,97403.59
2019-04-22T19:41:14.552Z,97407.59
2019-04-22T19:44:33.292Z,97405.73
2019-04-22T19:47:18.509Z,97403.44
2019-04-22T19:49:36.447Z,97398.52
2019-04-22T19:52:05.575Z,97401.97
2019-04-22T19:54:34.941Z,97403.52
2019-04-22T19:56:59.100Z,97398.86
2019-04-22T19:59:32.346Z,97398.10
2019-04-22T20:02:24.969Z,97396.06
2019-04-22T20:05:02.763Z,97392.90
2019-04-22T20:07:27.801Z,97398.58
2019-04-22T20:10:14.912Z,97409.48
2019-04-22T20:12:41.137Z,97405.48
2019-04-22T20:15:13.836Z,97408.58
2019-04-22T20:23:22.901Z,97424.09
2019-04-22T20:25:56.266Z,97423.94
2019-04-22T20:28:37.887Z,97435.28
2019-04-22T20:31:09.892Z,97443.02
2019-04-22T20:34:04.674Z,97444.27
2019-04-22T20:36:52.989Z,97446.88
2019-04-22T20:38:59.348Z,97448.23
2019-04-22T20:41:31.764Z,97456.20
2019-04-22T20:49:44.961Z,97462.44
2019-04-22T20:52:24.217Z,97465.30
2019-04-22T20:54:44.900Z,97472.98
2019-04-22T20:57:15.220Z,97471.30
2019-04-22T20:59:48.458Z,97486.41
2019-04-22T21:02:15.290Z,97483.15
2019-04-22T21:04:41.546Z,97483.66
2019-04-22T21:07:19.606Z,97487.03
2019-04-22T21:09:52.405Z,97484.28
2019-04-22T21:12:19.642Z,97488.71
2019-04-22T21:15:00.463Z,97490.12
2019-04-22T21:17:30.915Z,97496.45
2019-04-22T21:20:00.701Z,97506.16
2019-04-22T21:22:33.512Z,97500.22
2019-04-22T21:24:57.576Z,97499.11
2019-04-22T21:27:34.386Z,97510.84
2019-04-22T21:29:58.231Z,97504.89
2019-04-22T21:32:42.001Z,97527.37
2019-04-22T21:35:21.565Z,97518.89
2019-04-22T21:37:42.985Z,97517.27
2019-04-22T21:40:18.153Z,97517.93
2019-04-22T21:42:55.877Z,97517.55
2019-04-22T21:45:16.553Z,97512.51
2019-04-22T21:47:57.603Z,97524.48
2019-04-22T21:53:02.299Z,97518.84
2019-04-22T21:55:37.844Z,97517.75
2019-04-22T21:58:27.930Z,97530.90
2019-04-22T22:01:07.637Z,97530.30
2019-04-22T22:03:30.087Z,97530.50
2019-04-22T22:05:54.408Z,97534.38
2019-04-22T22:08:32.163Z,97527.83
2019-04-22T22:10:57.933Z,97534.42
2019-04-22T22:13:38.650Z,97526.89
2019-04-22T22:16:10.317Z,97530.39
2019-04-22T22:18:34.977Z,97536.85
2019-04-22T22:21:36.315Z,97542.75
2019-04-22T22:23:55.910Z,97549.25
2019-04-22T22:26:15.584Z,97545.64
2019-04-22T22:28:56.647Z,97550.41
2019-04-22T22:31:28.626Z,97562.72
2019-04-22T22:34:10.795Z,97552.11
2019-04-22T22:36:33.259Z,97561.28
2019-04-22T22:39:05.468Z,97554.27
2019-04-22T22:41:23.866Z,97552.81
2019-04-22T22:43:58.261Z,97546.08
2019-04-22T22:46:34.122Z,97548.89
2019-04-22T22:49:18.602Z,97545.01
2019-04-22T22:51:53.134Z,97544.22
2019-04-22T22:54:25.100Z,97549.08
2019-04-22T22:57:19.502Z,97534.48
2019-04-22T22:59:27.593Z,97541.83
2019-04-22T23:01:54.407Z,97540.99
2019-04-22T23:04:37.128Z,97538.47
2019-04-22T23:07:09.302Z,97548.28
2019-04-22T23:09:47.336Z,97545.20
2019-04-22T23:12:25.046Z,97548.75
2019-04-22T23:14:44.251Z,97551.84
2019-04-22T23:17:03.112Z,97555.16
2019-04-22T23:19:26.077Z,97557.31
2019-04-22T23:22:01.102Z,97562.87
2019-04-22T23:25:03.203Z,97559.70
2019-04-22T23:27:34.133Z,97563.61
2019-04-22T23:30:12.785Z,97567.17
2019-04-22T23:32:58.003Z,97574.66
2019-04-22T23:35:39.676Z,97573.56
2019-04-22T23:38:10.719Z,97575.08
2019-04-22T23:40:42.925Z,97571.66
2019-04-22T23:43:36.778Z,97572.83
2019-04-22T23:46:02.906Z,97575.02
2019-04-22T23:48:28.975Z,97578.02
2019-04-22T23:51:12.104Z,97579.84
2019-04-22T23:54:04.316Z,97581.16
2019-04-22T23:56:17.192Z,97591.16
2019-04-22T23:58:58.504Z,97589.20
